createdAt,value
2019-03-29T00:01:39.853Z,101741.94
2019-03-29T00:04:15.259Z,101746.28
2019-03-29T00:06:52.395Z,101747.19
2019-03-29T00:09:27.864Z,101746.09
2019-03-29T00:12:05.567Z,101746.41
2019-03-29T00:14:42.036Z,101750.38
2019-03-29T00:17:17.987Z,101746.09
2019-03-29T00:19:54.109Z,101744.02
2019-03-29T00:22:28.793Z,101740.34
2019-03-29T00:25:04.184Z,101739.28
2019-03-29T00:27:39.668Z,101734.30
2019-03-29T00:30:16.036Z,101732.47
2019-03-29T00:32:50.963Z,101726.88
2019-03-29T00:35:25.563Z,101731.34
2019-03-29T00:38:00.631Z,101724.53
2019-03-29T00:40:35.468Z,101723.08
2019-03-29T00:43:12.137Z,101720.71
2019-03-29T00:45:48.561Z,101714.42
2019-03-29T00:48:24.687Z,101706.17
2019-03-29T00:51:03.253Z,101696.62
2019-03-29T00:53:37.973Z,101688.02
2019-03-29T00:56:13.144Z,101681.09
2019-03-29T00:58:48.749Z,101680.50
2019-03-29T01:01:24.129Z,101683.08
2019-03-29T01:04:00.318Z,101681.28
2019-03-29T01:06:35.571Z,101679.97
2019-03-29T01:09:11.198Z,101675.51
2019-03-29T01:11:46.757Z,101668.39
2019-03-29T01:14:26.293Z,101674.19
2019-03-29T01:17:03.103Z,101663.81
2019-03-29T01:19:40.997Z,101663.92
2019-03-29T01:22:16.830Z,101660.98
2019-03-29T01:24:51.537Z,101668.59
2019-03-29T01:27:26.346Z,101669.02
2019-03-29T01:30:04.318Z,101667.49
2019-03-29T01:32:39.276Z,101662.31
2019-03-29T01:35:14.458Z,101668.20
2019-03-29T01:37:49.248Z,101665.28
2019-03-29T01:40:24.319Z,101663.23
2019-03-29T01:43:01.496Z,101665.52
2019-03-29T01:45:39.001Z,101658.11
2019-03-29T01:48:14.159Z,101659.45
2019-03-29T01:50:49.551Z,101659.73
2019-03-29T01:53:27.129Z,101653.47
2019-03-29T01:56:01.660Z,101651.00
2019-03-29T01:58:36.617Z,101644.84
2019-03-29T02:01:12.997Z,101639.11
2019-03-29T02:03:47.616Z,101637.24
2019-03-29T02:06:23.645Z,101629.50
2019-03-29T02:08:58.818Z,101629.13
2019-03-29T02:11:33.316Z,101620.80
2019-03-29T02:14:09.147Z,101622.39
2019-03-29T02:16:43.679Z,101624.09
2019-03-29T02:19:19.687Z,101616.02
2019-03-29T02:21:55.814Z,101627.80
2019-03-29T02:24:30.802Z,101624.79
2019-03-29T02:27:05.904Z,101619.02
2019-03-29T02:29:40.906Z,101624.31
2019-03-29T02:32:15.877Z,101620.61
2019-03-29T02:34:51.940Z,101618.79
2019-03-29T02:37:26.794Z,101616.73
2019-03-29T02:40:03.852Z,101617.14
2019-03-29T02:42:39.460Z,101615.88
2019-03-29T02:45:16.989Z,101609.37
2019-03-29T02:47:53.070Z,101610.23
2019-03-29T02:50:27.670Z,101608.72
2019-03-29T02:53:03.527Z,101609.39
2019-03-29T02:55:38.675Z,101609.87
2019-03-29T02:58:14.888Z,101610.05
2019-03-29T03:00:50.186Z,101608.59
2019-03-29T03:03:24.971Z,101611.27
2019-03-29T03:05:59.563Z,101615.05
2019-03-29T03:08:34.995Z,101611.48
2019-03-29T03:11:09.917Z,101609.92
2019-03-29T03:13:44.829Z,101607.59
2019-03-29T03:16:21.071Z,101609.09
2019-03-29T03:18:55.660Z,101609.99
2019-03-29T03:21:30.334Z,101607.00
2019-03-29T03:24:06.396Z,101604.30
2019-03-29T03:26:41.274Z,101608.88
2019-03-29T03:29:15.920Z,101608.59
2019-03-29T03:31:51.295Z,101607.00
2019-03-29T03:34:25.946Z,101606.81
2019-03-29T03:37:00.610Z,101610.10
2019-03-29T03:39:36.435Z,101610.31
2019-03-29T03:42:11.516Z,101612.52
2019-03-29T03:44:46.723Z,101619.84
2019-03-29T03:47:22.504Z,101618.44
2019-03-29T03:50:00.706Z,101615.27
2019-03-29T03:52:36.022Z,101615.44
2019-03-29T03:55:11.981Z,101615.24
2019-03-29T03:57:48.693Z,101615.83
2019-03-29T04:00:53.123Z,101613.18
2019-03-29T04:03:28.683Z,101610.53
2019-03-29T04:06:03.790Z,101611.62
2019-03-29T04:08:38.716Z,101606.64
2019-03-29T04:11:13.417Z,101610.05
2019-03-29T04:13:48.014Z,101607.97
2019-03-29T04:16:23.318Z,101609.22
2019-03-29T04:18:57.849Z,101610.48
2019-03-29T04:21:32.750Z,101612.36
2019-03-29T04:24:07.709Z,101613.72
2019-03-29T04:26:42.782Z,101616.97
2019-03-29T04:29:17.733Z,101613.06
2019-03-29T04:31:52.618Z,101613.72
2019-03-29T04:34:30.379Z,101604.78
2019-03-29T04:37:04.911Z,101611.02
2019-03-29T04:39:41.702Z,101609.64
2019-03-29T04:42:16.693Z,101606.81
2019-03-29T04:44:51.873Z,101607.52
2019-03-29T04:47:26.654Z,101616.30
2019-03-29T04:50:02.051Z,101614.09
2019-03-29T04:52:37.443Z,101611.69
2019-03-29T04:55:12.963Z,101611.77
2019-03-29T04:57:48.278Z,101614.25
2019-03-29T05:00:23.403Z,101607.73
2019-03-29T05:02:58.447Z,101608.46
2019-03-29T05:05:33.166Z,101608.89
2019-03-29T05:08:09.034Z,101604.72
2019-03-29T05:10:44.669Z,101604.84
2019-03-29T05:13:19.359Z,101599.61
2019-03-29T05:15:54.883Z,101600.61
2019-03-29T05:18:30.723Z,101600.52
2019-03-29T05:21:05.457Z,101599.55
2019-03-29T05:23:40.030Z,101598.05
2019-03-29T05:26:16.347Z,101600.23
2019-03-29T05:28:51.062Z,101595.64
2019-03-29T05:31:28.569Z,101597.91
2019-03-29T05:34:08.558Z,101595.20
2019-03-29T05:36:43.955Z,101597.73
2019-03-29T05:39:19.508Z,101595.68
2019-03-29T05:41:57.758Z,101593.06
2019-03-29T05:44:43.913Z,101588.11
2019-03-29T05:47:18.508Z,101585.67
2019-03-29T05:49:53.454Z,101588.16
2019-03-29T05:52:29.611Z,101592.50
2019-03-29T05:55:04.496Z,101591.94
2019-03-29T05:57:39.534Z,101591.72
2019-03-29T06:00:19.938Z,101593.31
2019-03-29T06:02:55.639Z,101598.78
2019-03-29T06:05:30.317Z,101600.37
2019-03-29T06:08:05.069Z,101593.69
2019-03-29T06:10:49.034Z,101591.38
2019-03-29T06:13:24.891Z,101592.87
2019-03-29T06:15:59.378Z,101592.14
2019-03-29T06:18:34.212Z,101591.42
2019-03-29T06:21:10.035Z,101596.45
2019-03-29T06:23:44.948Z,101590.14
2019-03-29T06:26:21.706Z,101582.63
2019-03-29T06:28:59.675Z,101589.35
2019-03-29T06:31:34.448Z,101584.58
2019-03-29T06:34:10.083Z,101584.50
2019-03-29T06:36:45.879Z,101583.39
2019-03-29T06:39:21.857Z,101575.86
2019-03-29T06:41:57.031Z,101574.15
2019-03-29T06:44:32.731Z,101571.83
2019-03-29T06:47:07.530Z,101575.83
2019-03-29T06:49:43.218Z,101575.06
2019-03-29T06:52:18.182Z,101577.27
2019-03-29T06:54:52.392Z,101572.28
2019-03-29T06:57:27.449Z,101572.36
2019-03-29T07:00:05.312Z,101575.77
2019-03-29T07:02:40.306Z,101571.00
2019-03-29T07:05:15.855Z,101575.69
2019-03-29T07:07:50.709Z,101575.91
2019-03-29T07:10:25.934Z,101577.09
2019-03-29T07:13:02.454Z,101575.20
2019-03-29T07:15:37.102Z,101567.41
2019-03-29T07:18:12.183Z,101566.12
2019-03-29T07:20:48.124Z,101563.63
2019-03-29T07:23:24.214Z,101561.52
2019-03-29T07:26:00.159Z,101560.56
2019-03-29T07:28:35.024Z,101556.54
2019-03-29T07:31:09.746Z,101552.80
2019-03-29T07:33:45.368Z,101549.83
2019-03-29T07:36:19.930Z,101551.20
2019-03-29T07:38:55.243Z,101552.33
2019-03-29T07:41:32.169Z,101553.70
2019-03-29T07:44:08.183Z,101552.09
2019-03-29T07:46:46.354Z,101553.66
2019-03-29T07:49:21.713Z,101560.14
2019-03-29T07:51:57.749Z,101558.73
2019-03-29T07:54:36.135Z,101556.66
2019-03-29T07:57:10.947Z,101558.86
2019-03-29T07:59:47.940Z,101556.23
2019-03-29T08:02:25.072Z,101559.13
2019-03-29T08:05:00.391Z,101561.44
2019-03-29T08:07:36.555Z,101567.31
2019-03-29T08:10:24.079Z,101571.06
2019-03-29T08:13:05.134Z,101572.03
2019-03-29T08:15:40.677Z,101569.74
2019-03-29T08:18:19.590Z,101568.26
2019-03-29T08:20:54.734Z,101563.77
2019-03-29T08:23:30.699Z,101567.48
2019-03-29T08:26:05.853Z,101565.69
2019-03-29T08:28:43.155Z,101556.92
2019-03-29T08:31:21.331Z,101563.02
2019-03-29T08:33:56.409Z,101562.92
2019-03-29T08:36:32.627Z,101560.03
2019-03-29T08:39:10.207Z,101558.80
2019-03-29T08:41:54.482Z,101556.66
2019-03-29T08:44:36.254Z,101556.61
2019-03-29T08:47:14.586Z,101553.20
2019-03-29T08:49:49.506Z,101549.11
2019-03-29T08:52:25.416Z,101548.26
2019-03-29T08:55:06.063Z,101548.51
2019-03-29T08:57:44.020Z,101549.53
2019-03-29T09:00:34.210Z,101544.77
2019-03-29T09:03:11.389Z,101532.40
2019-03-29T09:05:46.278Z,101528.42
2019-03-29T09:08:22.411Z,101527.48
2019-03-29T09:10:57.677Z,101528.48
2019-03-29T09:13:37.319Z,101525.92
2019-03-29T09:16:18.411Z,101518.47
2019-03-29T09:18:54.440Z,101518.84
2019-03-29T09:21:29.090Z,101520.24
2019-03-29T09:24:05.859Z,101519.14
2019-03-29T09:26:40.756Z,101512.83
2019-03-29T09:29:17.272Z,101514.92
2019-03-29T09:31:51.782Z,101513.19
2019-03-29T09:34:28.875Z,101510.19
2019-03-29T09:37:04.733Z,101505.61
2019-03-29T09:39:40.719Z,101503.70
2019-03-29T09:42:28.234Z,101501.28
2019-03-29T09:45:05.422Z,101490.38
2019-03-29T09:47:42.875Z,101487.84
2019-03-29T09:50:22.892Z,101490.92
2019-03-29T09:53:00.968Z,101485.63
2019-03-29T09:55:36.655Z,101480.59
2019-03-29T09:58:11.355Z,101480.67
2019-03-29T10:00:46.578Z,101479.62
2019-03-29T10:03:21.388Z,101474.09
2019-03-29T10:05:57.387Z,101464.95
2019-03-29T10:08:33.869Z,101462.54
2019-03-29T10:11:09.279Z,101462.41
2019-03-29T10:13:43.884Z,101455.73
2019-03-29T10:16:25.827Z,101459.21
2019-03-29T10:19:02.794Z,101456.90
2019-03-29T10:21:38.204Z,101452.50
2019-03-29T10:24:13.351Z,101449.23
2019-03-29T10:26:48.149Z,101436.28
2019-03-29T10:29:26.854Z,101430.13
2019-03-29T10:32:05.386Z,101423.42
2019-03-29T10:34:42.874Z,101426.34
2019-03-29T10:37:17.762Z,101420.12
2019-03-29T10:39:52.578Z,101415.88
2019-03-29T10:42:27.167Z,101416.66
2019-03-29T10:45:03.179Z,101415.63
2019-03-29T10:47:43.691Z,101409.87
2019-03-29T10:50:19.590Z,101403.09
2019-03-29T10:52:55.858Z,101401.37
2019-03-29T10:55:30.617Z,101403.34
2019-03-29T10:58:05.166Z,101400.11
2019-03-29T11:00:41.662Z,101399.40
2019-03-29T11:03:16.636Z,101397.15
2019-03-29T11:05:54.810Z,101398.43
2019-03-29T11:08:30.235Z,101389.23
2019-03-29T11:11:05.414Z,101385.56
2019-03-29T11:13:41.396Z,101377.97
2019-03-29T11:16:16.587Z,101370.47
2019-03-29T11:18:52.934Z,101374.82
2019-03-29T11:21:30.056Z,101358.27
2019-03-29T11:24:08.812Z,101361.55
2019-03-29T11:26:43.963Z,101361.12
2019-03-29T11:29:19.947Z,101354.05
2019-03-29T11:31:55.773Z,101350.64
2019-03-29T11:34:31.178Z,101352.93
2019-03-29T11:37:06.726Z,101353.45
2019-03-29T11:39:41.612Z,101344.64
2019-03-29T11:42:20.271Z,101336.95
2019-03-29T11:44:54.811Z,101323.58
2019-03-29T11:47:29.676Z,101329.84
2019-03-29T11:50:04.915Z,101320.78
2019-03-29T11:52:39.598Z,101315.45
2019-03-29T11:55:15.820Z,101309.67
2019-03-29T11:57:51.038Z,101302.73
2019-03-29T12:00:38.006Z,101299.42
2019-03-29T12:03:13.175Z,101300.03
2019-03-29T12:05:50.760Z,101292.36
2019-03-29T12:08:27.582Z,101295.89
2019-03-29T12:11:05.367Z,101289.41
2019-03-29T12:13:41.610Z,101288.60
2019-03-29T12:16:20.562Z,101285.94
2019-03-29T12:18:59.390Z,101275.87
2019-03-29T12:21:36.026Z,101275.33
2019-03-29T12:24:11.087Z,101272.14
2019-03-29T12:26:47.100Z,101269.08
2019-03-29T12:29:22.363Z,101268.34
2019-03-29T12:31:58.976Z,101260.53
2019-03-29T12:34:34.620Z,101260.84
2019-03-29T12:37:12.214Z,101252.00
2019-03-29T12:39:50.447Z,101248.14
2019-03-29T12:42:29.025Z,101241.41
2019-03-29T12:45:06.527Z,101234.03
2019-03-29T12:47:41.277Z,101240.94
2019-03-29T12:50:17.093Z,101231.69
2019-03-29T12:52:52.451Z,101225.86
2019-03-29T12:55:30.264Z,101221.06
2019-03-29T12:58:04.979Z,101219.07
2019-03-29T13:00:40.802Z,101214.34
2019-03-29T13:03:16.090Z,101202.30
2019-03-29T13:05:50.822Z,101190.80
2019-03-29T13:08:25.550Z,101193.11
2019-03-29T13:11:01.744Z,101198.29
2019-03-29T13:13:38.202Z,101196.27
2019-03-29T13:16:13.884Z,101187.97
2019-03-29T13:18:49.031Z,101181.86
2019-03-29T13:21:23.586Z,101175.83
2019-03-29T13:23:58.543Z,101175.69
2019-03-29T13:26:35.037Z,101171.34
2019-03-29T13:29:11.347Z,101167.80
2019-03-29T13:31:48.334Z,101168.44
2019-03-29T13:34:24.247Z,101165.83
2019-03-29T13:36:59.683Z,101161.81
2019-03-29T13:39:37.424Z,101159.88
2019-03-29T13:42:13.370Z,101153.31
2019-03-29T13:44:49.985Z,101149.31
2019-03-29T13:47:26.747Z,101147.34
2019-03-29T13:50:02.631Z,101148.60
2019-03-29T13:52:39.262Z,101143.45
2019-03-29T13:55:16.256Z,101136.13
2019-03-29T13:57:53.123Z,101132.36
2019-03-29T14:00:31.000Z,101118.78
2019-03-29T14:03:06.208Z,101110.80
2019-03-29T14:05:44.542Z,101107.33
2019-03-29T14:08:19.932Z,101107.09
2019-03-29T14:10:57.352Z,101106.77
2019-03-29T14:13:32.942Z,101098.75
2019-03-29T14:16:10.951Z,101095.19
2019-03-29T14:18:47.616Z,101089.97
2019-03-29T14:21:25.784Z,101086.28
2019-03-29T14:24:15.778Z,101085.86
2019-03-29T14:26:50.730Z,101083.95
2019-03-29T14:29:30.830Z,101079.28
2019-03-29T14:32:06.798Z,101079.56
2019-03-29T14:34:47.083Z,101074.81
2019-03-29T14:37:22.810Z,101070.58
2019-03-29T14:40:00.901Z,101061.52
2019-03-29T14:42:38.901Z,101064.59
2019-03-29T14:45:17.822Z,101062.45
2019-03-29T14:47:54.949Z,101055.14
2019-03-29T14:50:34.406Z,101048.33
2019-03-29T14:53:12.485Z,101045.52
2019-03-29T14:55:48.735Z,101045.27
2019-03-29T14:58:25.477Z,101042.23
2019-03-29T15:01:05.740Z,101034.19
2019-03-29T15:03:41.797Z,101029.52
2019-03-29T15:06:18.912Z,101018.03
2019-03-29T15:08:56.978Z,101020.42
2019-03-29T15:11:36.472Z,101016.77
2019-03-29T15:14:14.710Z,101010.05
2019-03-29T15:16:57.722Z,101013.33
2019-03-29T15:19:36.719Z,101005.90
2019-03-29T15:22:13.342Z,101005.94
2019-03-29T15:24:57.185Z,101005.58
2019-03-29T15:27:55.297Z,101003.12
2019-03-29T15:30:56.835Z,100995.08
2019-03-29T15:33:43.792Z,100991.38
2019-03-29T15:36:28.928Z,100985.41
2019-03-29T15:39:06.878Z,100979.42
2019-03-29T15:41:45.692Z,100973.48
2019-03-29T15:44:22.722Z,100971.83
2019-03-29T15:47:04.376Z,100970.56
2019-03-29T15:49:41.041Z,100963.28
2019-03-29T15:52:21.575Z,100966.06
2019-03-29T15:55:18.990Z,100969.86
2019-03-29T15:57:55.288Z,100964.73
2019-03-29T16:00:32.506Z,100964.55
2019-03-29T16:03:08.475Z,100960.44
2019-03-29T16:05:44.257Z,100957.06
2019-03-29T16:08:22.564Z,100951.87
2019-03-29T16:10:58.341Z,100951.23
2019-03-29T16:13:33.813Z,100948.59
2019-03-29T16:16:12.133Z,100942.52
2019-03-29T16:18:48.223Z,100941.22
2019-03-29T16:21:26.120Z,100940.54
2019-03-29T16:24:02.337Z,100935.23
2019-03-29T16:26:37.235Z,100929.64
2019-03-29T16:29:15.136Z,100926.17
2019-03-29T16:31:51.075Z,100932.34
2019-03-29T16:34:28.281Z,100932.02
2019-03-29T16:37:03.461Z,100924.19
2019-03-29T16:39:38.327Z,100928.75
2019-03-29T16:42:15.178Z,100925.81
2019-03-29T16:44:52.611Z,100923.13
2019-03-29T16:47:33.934Z,100925.09
2019-03-29T16:50:12.334Z,100925.79
2019-03-29T16:52:49.425Z,100922.41
2019-03-29T16:55:25.417Z,100923.88
2019-03-29T16:57:59.976Z,100916.53
2019-03-29T17:00:36.251Z,100921.82
2019-03-29T17:03:11.048Z,100920.44
2019-03-29T17:05:47.242Z,100922.47
2019-03-29T17:08:23.635Z,100923.33
2019-03-29T17:10:59.768Z,100923.55
2019-03-29T17:13:35.023Z,100919.80
2019-03-29T17:16:09.724Z,100917.35
2019-03-29T17:18:45.661Z,100914.36
2019-03-29T17:21:21.201Z,100923.46
2019-03-29T17:23:58.609Z,100927.00
2019-03-29T17:26:34.985Z,100926.09
2019-03-29T17:29:10.422Z,100925.30
2019-03-29T17:31:45.615Z,100924.95
2019-03-29T17:34:24.124Z,100924.84
2019-03-29T17:37:00.792Z,100925.91
2019-03-29T17:39:37.903Z,100920.72
2019-03-29T17:42:13.717Z,100917.80
2019-03-29T17:44:50.125Z,100915.95
2019-03-29T17:47:28.805Z,100920.67
2019-03-29T17:50:04.301Z,100913.79
2019-03-29T17:52:40.462Z,100918.45
2019-03-29T17:55:15.318Z,100920.62
2019-03-29T17:57:50.785Z,100912.64
2019-03-29T18:00:26.616Z,100919.25
2019-03-29T18:03:01.634Z,100919.76
2019-03-29T18:05:37.671Z,100917.61
2019-03-29T18:08:14.025Z,100923.23
2019-03-29T18:10:50.021Z,100916.78
2019-03-29T18:13:27.197Z,100929.17
2019-03-29T18:16:14.331Z,100921.19
2019-03-29T18:19:03.933Z,100927.01
2019-03-29T18:22:07.160Z,100930.94
2019-03-29T18:24:42.854Z,100935.26
2019-03-29T18:27:24.255Z,100934.29
2019-03-29T18:30:04.588Z,100942.37
2019-03-29T18:32:45.840Z,100937.31
2019-03-29T18:35:23.046Z,100938.36
2019-03-29T18:38:00.925Z,100940.84
2019-03-29T18:40:37.198Z,100936.17
2019-03-29T18:43:17.350Z,100946.57
2019-03-29T18:45:52.003Z,100940.42
2019-03-29T18:48:27.336Z,100941.71
2019-03-29T18:51:04.637Z,100936.16
2019-03-29T18:53:40.733Z,100939.69
2019-03-29T18:56:16.354Z,100938.55
2019-03-29T18:58:51.661Z,100938.67
2019-03-29T19:01:26.594Z,100938.71
2019-03-29T19:04:04.031Z,100943.70
2019-03-29T19:06:39.083Z,100949.98
2019-03-29T19:09:13.712Z,100949.78
2019-03-29T19:11:50.111Z,100950.58
2019-03-29T19:14:26.235Z,100950.56
2019-03-29T19:17:01.029Z,100953.95
2019-03-29T19:19:36.438Z,100954.75
2019-03-29T19:22:12.466Z,100961.08
2019-03-29T19:24:47.691Z,100955.31
2019-03-29T19:27:24.537Z,100954.48
2019-03-29T19:30:02.456Z,100955.86
2019-03-29T19:32:42.636Z,100954.20
2019-03-29T19:35:19.022Z,100956.73
2019-03-29T19:37:53.715Z,100956.81
2019-03-29T19:40:30.752Z,100955.70
2019-03-29T19:43:05.587Z,100958.38
2019-03-29T19:45:53.602Z,100956.92
2019-03-29T19:48:47.894Z,100950.94
2019-03-29T19:51:29.304Z,100946.48
2019-03-29T19:54:10.349Z,100945.28
2019-03-29T19:56:45.911Z,100948.94
2019-03-29T19:59:25.387Z,100948.70
2019-03-29T20:02:00.627Z,100942.47
2019-03-29T20:04:39.600Z,100948.26
2019-03-29T20:07:14.858Z,100943.77
2019-03-29T20:09:49.831Z,100942.30
2019-03-29T20:12:27.610Z,100944.38
2019-03-29T20:15:05.251Z,100937.36
2019-03-29T20:17:41.951Z,100940.36
2019-03-29T20:20:33.743Z,100939.36
2019-03-29T20:23:08.901Z,100938.20
2019-03-29T20:25:49.516Z,100941.47
2019-03-29T20:28:25.275Z,100939.78
2019-03-29T20:31:00.863Z,100932.31
2019-03-29T20:33:39.771Z,100935.30
2019-03-29T20:36:22.868Z,100935.66
2019-03-29T20:38:59.399Z,100930.59
2019-03-29T20:41:34.727Z,100926.83
2019-03-29T20:44:10.316Z,100927.63
2019-03-29T20:46:47.483Z,100923.66
2019-03-29T20:49:22.758Z,100927.52
2019-03-29T20:51:59.221Z,100929.22
2019-03-29T20:54:36.227Z,100922.53
2019-03-29T20:57:17.197Z,100930.19
2019-03-29T20:59:53.069Z,100926.44
2019-03-29T21:02:28.061Z,100931.50
2019-03-29T21:05:04.303Z,100929.47
2019-03-29T21:07:42.225Z,100930.95
2019-03-29T21:10:22.291Z,100929.41
2019-03-29T21:12:57.833Z,100922.41
2019-03-29T21:15:38.411Z,100922.31
2019-03-29T21:18:17.714Z,100916.98
2019-03-29T21:20:54.138Z,100920.73
2019-03-29T21:23:31.221Z,100920.02
2019-03-29T21:26:06.545Z,100922.25
2019-03-29T21:28:45.830Z,100921.20
2019-03-29T21:31:21.663Z,100915.31
2019-03-29T21:33:57.928Z,100913.95
2019-03-29T21:36:40.680Z,100913.64
2019-03-29T21:39:20.547Z,100911.19
2019-03-29T21:41:55.190Z,100914.24
2019-03-29T21:44:31.339Z,100916.56
2019-03-29T21:47:06.016Z,100916.30
2019-03-29T21:49:42.000Z,100912.78
2019-03-29T21:52:17.183Z,100911.08
2019-03-29T21:54:59.657Z,100915.97
2019-03-29T21:57:35.664Z,100912.15
2019-03-29T22:00:15.704Z,100911.20
2019-03-29T22:02:51.076Z,100914.61
2019-03-29T22:05:26.262Z,100913.68
2019-03-29T22:08:01.489Z,100908.81
2019-03-29T22:10:38.592Z,100913.30
2019-03-29T22:13:14.954Z,100910.50
2019-03-29T22:15:50.873Z,100903.63
2019-03-29T22:18:38.085Z,100900.31
2019-03-29T22:21:20.123Z,100897.95
2019-03-29T22:24:01.769Z,100900.47
2019-03-29T22:26:38.665Z,100899.59
2019-03-29T22:29:14.047Z,100896.06
2019-03-29T22:31:49.380Z,100894.46
2019-03-29T22:34:26.319Z,100890.95
2019-03-29T22:37:04.250Z,100887.92
2019-03-29T22:39:39.673Z,100889.28
2019-03-29T22:42:15.257Z,100882.20
2019-03-29T22:44:51.016Z,100883.28
2019-03-29T22:47:25.702Z,100873.38
2019-03-29T22:50:06.336Z,100876.19
2019-03-29T22:52:41.954Z,100878.66
2019-03-29T22:55:18.107Z,100877.83
2019-03-29T22:57:55.060Z,100873.49
2019-03-29T23:00:41.070Z,100878.94
2019-03-29T23:03:17.325Z,100867.80
2019-03-29T23:05:53.021Z,100864.87
2019-03-29T23:08:29.069Z,100862.52
2019-03-29T23:11:03.761Z,100863.77
2019-03-29T23:13:40.308Z,100865.38
2019-03-29T23:16:16.332Z,100864.54
2019-03-29T23:19:05.916Z,100859.20
2019-03-29T23:21:41.929Z,100848.97
2019-03-29T23:24:27.951Z,100850.73
2019-03-29T23:27:04.740Z,100844.52
2019-03-29T23:29:43.394Z,100839.50
2019-03-29T23:32:18.666Z,100837.47
2019-03-29T23:34:53.936Z,100845.09
2019-03-29T23:37:29.452Z,100836.86
2019-03-29T23:40:09.309Z,100836.36
2019-03-29T23:42:45.392Z,100832.14
2019-03-29T23:45:22.673Z,100831.45
2019-03-29T23:47:57.710Z,100830.38
2019-03-29T23:50:33.390Z,100823.86
2019-03-29T23:53:08.775Z,100826.45
2019-03-29T23:55:44.366Z,100821.50
2019-03-29T23:58:19.637Z,100818.98
